createdAt,value
2019-04-05T00:00:11.956Z,11.40
2019-04-05T00:02:45.544Z,10.83
2019-04-05T00:05:17.604Z,11.40
2019-04-05T00:07:50.712Z,10.70
2019-04-05T00:10:23.906Z,10.87
2019-04-05T00:12:56.364Z,10.50
2019-04-05T00:15:28.604Z,9.60
2019-04-05T00:18:00.567Z,10.30
2019-04-05T00:20:33.057Z,10.00
2019-04-05T00:23:05.724Z,10.23
2019-04-05T00:25:38.822Z,11.10
2019-04-05T00:28:11.096Z,10.97
2019-04-05T00:30:42.946Z,10.63
2019-04-05T00:33:14.715Z,10.73
2019-04-05T00:35:46.766Z,10.47
2019-04-05T00:38:18.592Z,10.87
2019-04-05T00:40:50.595Z,10.90
2019-04-05T00:43:22.375Z,11.80
2019-04-05T00:45:54.614Z,11.80
2019-04-05T00:48:26.478Z,11.57
2019-04-05T00:50:58.316Z,11.90
2019-04-05T00:53:30.614Z,11.67
2019-04-05T00:56:02.464Z,10.60
2019-04-05T00:58:34.324Z,10.93
2019-04-05T01:01:06.384Z,10.90
2019-04-05T01:03:38.256Z,10.80
2019-04-05T01:06:10.355Z,11.87
2019-04-05T01:08:42.184Z,11.93
2019-04-05T01:11:14.244Z,11.17
2019-04-05T01:13:46.113Z,11.90
2019-04-05T01:16:18.276Z,11.50
2019-04-05T01:18:50.124Z,12.13
2019-04-05T01:21:22.404Z,12.47
2019-04-05T01:23:54.682Z,12.13
2019-04-05T01:26:26.677Z,11.67
2019-04-05T01:28:58.514Z,11.83
2019-04-05T01:31:31.479Z,11.73
2019-04-05T01:34:05.516Z,10.97
2019-04-05T01:36:37.542Z,10.83
2019-04-05T01:39:09.616Z,10.13
2019-04-05T01:41:41.488Z,11.33
2019-04-05T01:44:13.523Z,10.27
2019-04-05T01:46:45.514Z,11.53
2019-04-05T01:49:17.565Z,10.70
2019-04-05T01:51:49.394Z,11.90
2019-04-05T01:54:21.794Z,12.53
2019-04-05T01:56:53.772Z,10.77
2019-04-05T01:59:25.633Z,11.27
2019-04-05T02:01:57.594Z,10.37
2019-04-05T02:04:29.354Z,10.87
2019-04-05T02:07:01.303Z,10.57
2019-04-05T02:09:33.173Z,10.60
2019-04-05T02:12:05.034Z,10.23
2019-04-05T02:14:36.894Z,10.13
2019-04-05T02:17:08.824Z,10.43
2019-04-05T02:19:40.723Z,11.17
2019-04-05T02:22:14.307Z,10.10
2019-04-05T02:24:46.596Z,10.13
2019-04-05T02:27:18.436Z,9.67
2019-04-05T02:29:50.414Z,10.77
2019-04-05T02:32:22.365Z,10.80
2019-04-05T02:34:54.235Z,10.23
2019-04-05T02:37:26.396Z,10.53
2019-04-05T02:39:58.388Z,12.70
2019-04-05T02:42:30.937Z,12.43
2019-04-05T02:45:05.577Z,11.40
2019-04-05T02:47:37.735Z,10.90
2019-04-05T02:50:09.884Z,11.10
2019-04-05T02:52:42.264Z,10.43
2019-04-05T02:55:14.825Z,10.50
2019-04-05T02:57:47.124Z,10.10
2019-04-05T03:00:19.074Z,10.83
2019-04-05T03:02:51.035Z,10.40
2019-04-05T03:05:22.903Z,10.93
2019-04-05T03:07:54.755Z,9.90
2019-04-05T03:10:50.064Z,10.27
2019-04-05T03:13:22.992Z,10.13
2019-04-05T03:15:57.666Z,10.20
2019-04-05T03:18:29.858Z,9.93
2019-04-05T03:21:04.255Z,10.33
2019-04-05T03:23:39.669Z,9.67
2019-04-05T03:26:14.157Z,10.87
2019-04-05T03:28:47.425Z,13.37
2019-04-05T03:31:24.626Z,12.60
2019-04-05T03:33:53.501Z,10.93
2019-04-05T03:36:25.675Z,10.67
2019-04-05T03:38:57.833Z,10.43
2019-04-05T03:41:29.804Z,10.30
2019-04-05T03:44:01.758Z,9.77
2019-04-05T03:46:33.841Z,9.63
2019-04-05T03:49:05.856Z,10.50
2019-04-05T03:51:37.646Z,12.57
2019-04-05T03:54:09.604Z,11.40
2019-04-05T03:56:42.906Z,11.73
2019-04-05T03:59:14.965Z,11.40
2019-04-05T04:01:46.752Z,10.90
2019-04-05T04:04:18.895Z,10.87
2019-04-05T04:06:50.796Z,10.87
2019-04-05T04:09:22.726Z,10.20
2019-04-05T04:11:54.593Z,9.73
2019-04-05T04:14:26.622Z,10.77
2019-04-05T04:17:11.560Z,10.47
2019-04-05T04:19:32.615Z,10.17
2019-04-05T04:22:14.890Z,10.10
2019-04-05T04:24:47.034Z,10.53
2019-04-05T04:27:19.203Z,10.40
2019-04-05T04:29:51.627Z,9.87
2019-04-05T04:32:23.493Z,9.20
2019-04-05T04:34:55.684Z,10.00
2019-04-05T04:37:28.835Z,9.93
2019-04-05T04:40:00.859Z,10.60
2019-04-05T04:42:32.755Z,9.23
2019-04-05T04:45:12.104Z,9.03
2019-04-05T04:47:38.763Z,9.77
2019-04-05T04:50:10.723Z,10.07
2019-04-05T04:52:42.773Z,9.73
2019-04-05T04:55:14.804Z,9.37
2019-04-05T04:57:47.373Z,9.30
2019-04-05T05:00:19.482Z,10.30
2019-04-05T05:02:51.335Z,9.30
2019-04-05T05:05:23.625Z,9.50
2019-04-05T05:07:55.767Z,9.43
2019-04-05T05:10:27.842Z,8.97
2019-04-05T05:12:59.701Z,9.03
2019-04-05T05:15:31.765Z,9.10
2019-04-05T05:18:03.562Z,8.33
2019-04-05T05:20:35.684Z,9.03
2019-04-05T05:23:07.754Z,9.23
2019-04-05T05:25:42.489Z,9.87
2019-04-05T05:28:14.855Z,10.23
2019-04-05T05:30:46.824Z,9.53
2019-04-05T05:33:18.749Z,9.53
2019-04-05T05:35:50.934Z,9.67
2019-04-05T05:38:23.114Z,8.80
2019-04-05T05:40:55.086Z,9.27
2019-04-05T05:43:27.045Z,8.40
2019-04-05T05:45:59.095Z,10.17
2019-04-05T05:48:31.180Z,9.40
2019-04-05T05:51:03.504Z,9.60
2019-04-05T05:53:35.505Z,9.60
2019-04-05T05:56:07.565Z,9.17
2019-04-05T05:58:39.834Z,8.90
2019-04-05T06:01:11.907Z,8.97
2019-04-05T06:03:43.784Z,9.83
2019-04-05T06:06:15.953Z,9.53
2019-04-05T06:08:47.954Z,9.60
2019-04-05T06:11:19.855Z,9.37
2019-04-05T06:13:51.622Z,9.43
2019-04-05T06:16:23.794Z,9.70
2019-04-05T06:18:55.652Z,8.63
2019-04-05T06:21:27.910Z,9.50
2019-04-05T06:23:59.790Z,10.07
2019-04-05T06:26:32.544Z,9.10
2019-04-05T06:29:05.625Z,9.50
2019-04-05T06:31:38.104Z,10.03
2019-04-05T06:34:10.175Z,9.57
2019-04-05T06:36:42.443Z,10.00
2019-04-05T06:39:14.404Z,9.90
2019-04-05T06:41:46.604Z,10.07
2019-04-05T06:44:18.534Z,10.13
2019-04-05T06:46:50.606Z,10.53
2019-04-05T06:49:22.464Z,9.40
2019-04-05T06:51:54.432Z,9.73
2019-04-05T06:54:26.284Z,9.97
2019-04-05T06:56:58.344Z,10.37
2019-04-05T06:59:30.515Z,10.20
2019-04-05T07:02:02.602Z,9.77
2019-04-05T07:04:34.354Z,10.10
2019-04-05T07:07:06.231Z,10.80
2019-04-05T07:09:39.290Z,10.17
2019-04-05T07:12:11.246Z,9.87
2019-04-05T07:14:43.185Z,11.93
2019-04-05T07:17:15.087Z,12.13
2019-04-05T07:19:46.934Z,10.77
2019-04-05T07:22:32.183Z,11.10
2019-04-05T07:24:52.989Z,10.77
2019-04-05T07:27:25.414Z,11.20
2019-04-05T07:29:57.754Z,10.43
2019-04-05T07:32:31.260Z,10.70
2019-04-05T07:35:04.693Z,11.80
2019-04-05T07:37:36.614Z,11.10
2019-04-05T07:40:08.584Z,11.67
2019-04-05T07:42:40.794Z,11.20
2019-04-05T07:45:13.014Z,11.20
2019-04-05T07:47:44.954Z,12.27
2019-04-05T07:50:16.753Z,11.53
2019-04-05T07:52:48.895Z,12.27
2019-04-05T07:55:20.805Z,11.87
2019-04-05T07:57:53.944Z,12.50
2019-04-05T08:00:50.592Z,11.27
2019-04-05T08:03:22.664Z,11.03
2019-04-05T08:05:54.713Z,11.07
2019-04-05T08:08:32.935Z,10.63
2019-04-05T08:11:05.514Z,10.37
2019-04-05T08:13:37.774Z,11.20
2019-04-05T08:16:09.841Z,11.17
2019-04-05T08:18:41.825Z,11.13
2019-04-05T08:21:13.704Z,11.13
2019-04-05T08:23:45.724Z,11.43
2019-04-05T08:26:17.784Z,11.00
2019-04-05T08:28:51.495Z,11.20
2019-04-05T08:31:23.715Z,11.57
2019-04-05T08:33:55.544Z,10.57
2019-04-05T08:36:27.494Z,11.00
2019-04-05T08:38:59.457Z,11.67
2019-04-05T08:41:31.814Z,11.70
2019-04-05T08:44:03.864Z,11.10
2019-04-05T08:46:35.845Z,11.20
2019-04-05T08:49:11.073Z,10.00
2019-04-05T08:51:41.923Z,11.00
2019-04-05T08:54:15.225Z,11.27
2019-04-05T08:56:47.354Z,11.03
2019-04-05T08:59:19.354Z,11.60
2019-04-05T09:01:51.814Z,12.23
2019-04-05T09:04:24.294Z,11.83
2019-04-05T09:06:56.164Z,11.97
2019-04-05T09:09:29.244Z,11.80
2019-04-05T09:12:01.407Z,11.93
2019-04-05T09:14:33.445Z,11.10
2019-04-05T09:17:05.453Z,11.80
2019-04-05T09:19:37.514Z,11.37
2019-04-05T09:22:09.884Z,11.40
2019-04-05T09:24:41.734Z,11.40
2019-04-05T09:27:13.704Z,11.60
2019-04-05T09:29:46.044Z,11.47
2019-04-05T09:32:18.445Z,11.23
2019-04-05T09:34:50.274Z,11.30
2019-04-05T09:37:22.266Z,11.10
2019-04-05T09:39:54.232Z,11.17
2019-04-05T09:42:26.024Z,11.33
2019-04-05T09:44:58.172Z,10.93
2019-04-05T09:47:30.132Z,11.47
2019-04-05T09:50:03.616Z,10.70
2019-04-05T09:52:35.473Z,10.97
2019-04-05T09:55:07.304Z,11.27
2019-04-05T09:57:40.164Z,11.10
2019-04-05T10:00:17.819Z,11.47
2019-04-05T10:02:50.385Z,11.80
2019-04-05T10:05:22.555Z,10.80
2019-04-05T10:07:55.806Z,11.37
2019-04-05T10:10:28.139Z,11.10
2019-04-05T10:13:00.098Z,11.10
2019-04-05T10:15:32.044Z,10.93
2019-04-05T10:18:03.904Z,10.87
2019-04-05T10:20:38.962Z,11.23
2019-04-05T10:23:10.914Z,10.57
2019-04-05T10:25:44.116Z,10.53
2019-04-05T10:28:16.276Z,10.03
2019-04-05T10:30:51.976Z,10.50
2019-04-05T10:33:24.090Z,11.13
2019-04-05T10:35:56.443Z,10.60
2019-04-05T10:38:28.315Z,10.60
2019-04-05T10:41:00.487Z,10.57
2019-04-05T10:43:32.273Z,11.17
2019-04-05T10:46:04.904Z,10.57
2019-04-05T10:48:37.904Z,10.50
2019-04-05T10:51:10.894Z,10.47
2019-04-05T10:53:42.784Z,9.90
2019-04-05T10:56:14.754Z,9.63
2019-04-05T10:58:46.574Z,9.97
2019-04-05T11:01:18.515Z,8.87
2019-04-05T11:03:50.595Z,8.97
2019-04-05T11:06:22.665Z,11.97
2019-04-05T11:08:54.444Z,9.03
2019-04-05T11:11:26.684Z,9.33
2019-04-05T11:13:59.166Z,9.67
2019-04-05T11:16:31.334Z,10.03
2019-04-05T11:19:03.394Z,8.83
2019-04-05T11:21:35.477Z,9.40
2019-04-05T11:24:07.324Z,8.93
2019-04-05T11:26:39.504Z,9.40
2019-04-05T11:29:12.701Z,9.43
2019-04-05T11:31:56.406Z,9.40
2019-04-05T11:34:20.186Z,9.33
2019-04-05T11:36:52.155Z,9.77
2019-04-05T11:39:24.009Z,9.10
2019-04-05T11:41:56.202Z,8.77
2019-04-05T11:44:27.967Z,9.17
2019-04-05T11:47:00.315Z,9.57
2019-04-05T11:49:32.874Z,9.50
2019-04-05T11:52:05.155Z,10.33
2019-04-05T11:54:37.114Z,9.23
2019-04-05T11:57:09.074Z,9.47
2019-04-05T11:59:41.044Z,9.57
2019-04-05T12:02:17.814Z,9.97
2019-04-05T12:04:50.502Z,9.47
2019-04-05T12:07:26.279Z,9.70
2019-04-05T12:09:56.364Z,9.63
2019-04-05T12:12:28.656Z,9.00
2019-04-05T12:15:00.494Z,9.60
2019-04-05T12:17:35.069Z,8.73
2019-04-05T12:20:07.405Z,8.37
2019-04-05T12:22:39.504Z,8.90
2019-04-05T12:25:13.114Z,8.63
2019-04-05T12:27:44.954Z,8.30
2019-04-05T12:30:24.275Z,8.47
2019-04-05T12:32:56.625Z,8.93
2019-04-05T12:35:29.025Z,8.03
2019-04-05T12:38:01.064Z,8.03
2019-04-05T12:40:33.124Z,8.23
2019-04-05T12:43:06.122Z,8.43
2019-04-05T12:45:37.976Z,9.30
2019-04-05T12:48:09.824Z,9.10
2019-04-05T12:50:44.648Z,8.27
2019-04-05T12:53:15.704Z,8.57
2019-04-05T12:55:47.664Z,8.03
2019-04-05T12:58:19.735Z,8.33
2019-04-05T13:00:51.594Z,8.63
2019-04-05T13:03:23.570Z,8.83
2019-04-05T13:05:57.226Z,8.47
2019-04-05T13:08:29.844Z,9.50
2019-04-05T13:11:02.205Z,9.00
2019-04-05T13:13:34.585Z,8.83
2019-04-05T13:16:09.843Z,8.20
2019-04-05T13:18:40.295Z,8.23
2019-04-05T13:21:15.212Z,7.90
2019-04-05T13:23:46.114Z,8.80
2019-04-05T13:26:17.984Z,8.70
2019-04-05T13:28:49.814Z,8.60
2019-04-05T13:31:21.712Z,8.27
2019-04-05T13:33:55.645Z,8.50
2019-04-05T13:36:28.184Z,8.70
2019-04-05T13:39:00.600Z,8.40
2019-04-05T13:41:32.619Z,9.20
2019-04-05T13:44:04.857Z,8.13
2019-04-05T13:46:39.002Z,8.80
2019-04-05T13:49:11.020Z,8.53
2019-04-05T13:51:42.975Z,8.00
2019-04-05T13:54:15.306Z,8.83
2019-04-05T13:56:48.394Z,8.93
2019-04-05T13:59:20.454Z,8.53
2019-04-05T14:02:05.357Z,7.93
2019-04-05T14:04:29.667Z,8.30
2019-04-05T14:07:03.691Z,8.50
2019-04-05T14:09:35.482Z,8.50
2019-04-05T14:12:09.506Z,8.30
2019-04-05T14:14:42.162Z,9.00
2019-04-05T14:17:14.373Z,9.07
2019-04-05T14:19:48.615Z,9.10
2019-04-05T14:22:22.228Z,8.63
2019-04-05T14:24:56.670Z,9.43
2019-04-05T14:27:28.264Z,8.67
2019-04-05T14:30:02.636Z,9.33
2019-04-05T14:32:35.811Z,8.53
2019-04-05T14:35:10.058Z,8.77
2019-04-05T14:37:43.444Z,8.87
2019-04-05T14:40:15.822Z,8.83
2019-04-05T14:42:47.888Z,8.63
2019-04-05T14:45:20.081Z,8.97
2019-04-05T14:47:51.974Z,9.07
2019-04-05T14:50:24.284Z,8.40
2019-04-05T14:52:56.104Z,8.93
2019-04-05T14:55:29.822Z,9.20
2019-04-05T14:58:03.375Z,9.10
2019-04-05T15:00:36.125Z,8.63
2019-04-05T15:03:07.984Z,9.17
2019-04-05T15:05:39.945Z,8.97
2019-04-05T15:08:12.224Z,9.47
2019-04-05T15:10:44.484Z,9.27
2019-04-05T15:13:16.444Z,9.37
2019-04-05T15:15:48.821Z,10.43
2019-04-05T15:18:24.224Z,9.27
2019-04-05T15:20:55.004Z,9.27
2019-04-05T15:23:26.776Z,9.27
2019-04-05T15:25:58.914Z,9.40
2019-04-05T15:28:30.817Z,9.53
2019-04-05T15:31:03.208Z,9.40
2019-04-05T15:33:35.092Z,9.47
2019-04-05T15:36:07.845Z,9.97
2019-04-05T15:38:39.940Z,9.83
2019-04-05T15:41:12.180Z,9.23
2019-04-05T15:43:44.825Z,9.63
2019-04-05T15:46:16.974Z,10.10
2019-04-05T15:48:51.514Z,10.20
2019-04-05T15:51:24.887Z,10.13
2019-04-05T15:53:56.357Z,10.77
2019-04-05T15:56:28.518Z,10.20
2019-04-05T15:59:03.668Z,10.00
2019-04-05T16:01:34.912Z,9.80
2019-04-05T16:04:07.297Z,9.63
2019-04-05T16:06:39.324Z,9.63
2019-04-05T16:09:13.754Z,10.23
2019-04-05T16:11:46.084Z,9.47
2019-04-05T16:14:18.285Z,10.70
2019-04-05T16:16:50.575Z,9.73
2019-04-05T16:19:22.604Z,9.67
2019-04-05T16:21:54.413Z,9.27
2019-04-05T16:24:26.195Z,12.33
2019-04-05T16:26:58.317Z,11.27
2019-04-05T16:36:55.210Z,11.73
2019-04-05T16:39:27.680Z,9.87
2019-04-05T16:42:00.977Z,12.27
2019-04-05T16:44:33.185Z,11.90
2019-04-05T16:47:05.466Z,11.37
2019-04-05T16:49:37.677Z,11.13
2019-04-05T16:52:09.951Z,12.00
2019-04-05T16:54:41.908Z,10.53
2019-04-05T16:57:19.107Z,9.67
2019-04-05T16:59:57.094Z,11.33
2019-04-05T17:02:29.299Z,18.33
2019-04-05T17:05:01.232Z,16.13
2019-04-05T17:07:33.285Z,14.00
2019-04-05T17:10:05.978Z,12.50
2019-04-05T17:12:39.577Z,12.57
2019-04-05T17:15:11.643Z,11.00
2019-04-05T17:17:43.754Z,10.43
2019-04-05T17:20:15.985Z,11.90
2019-04-05T17:22:57.979Z,11.40
2019-04-05T17:25:21.648Z,12.67
2019-04-05T17:27:53.928Z,14.27
2019-04-05T17:30:25.982Z,18.13
2019-04-05T17:32:58.258Z,15.43
2019-04-05T17:35:30.424Z,12.70
2019-04-05T17:38:06.385Z,11.17
2019-04-05T17:40:38.732Z,11.17
2019-04-05T17:43:10.805Z,17.17
2019-04-05T17:45:42.762Z,13.00
2019-04-05T17:48:15.046Z,11.10
2019-04-05T17:50:47.319Z,11.37
2019-04-05T17:53:19.887Z,13.00
2019-04-05T17:55:51.952Z,12.20
2019-04-05T17:58:24.114Z,12.63
2019-04-05T18:00:56.084Z,12.83
2019-04-05T18:03:28.254Z,12.23
2019-04-05T18:06:00.272Z,12.77
2019-04-05T18:08:32.474Z,12.57
2019-04-05T18:11:05.066Z,13.77
2019-04-05T18:13:37.242Z,15.03
2019-04-05T18:16:09.405Z,17.77
2019-04-05T18:18:41.965Z,19.13
2019-04-05T18:21:13.944Z,18.53
2019-04-05T18:23:46.514Z,19.57
2019-04-05T18:26:18.364Z,18.97
2019-04-05T18:28:50.535Z,15.27
2019-04-05T18:31:22.422Z,15.33
2019-04-05T18:33:54.555Z,17.57
2019-04-05T18:36:26.524Z,17.47
2019-04-05T18:39:02.577Z,15.37
2019-04-05T18:41:36.794Z,12.50
2019-04-05T18:44:09.333Z,12.83
2019-04-05T18:46:41.337Z,15.00
2019-04-05T18:49:13.422Z,15.03
2019-04-05T18:51:45.365Z,16.77
2019-04-05T18:54:17.633Z,18.40
2019-04-05T18:56:49.495Z,16.73
2019-04-05T18:59:21.482Z,16.37
2019-04-05T19:01:53.626Z,15.97
2019-04-05T19:04:26.104Z,19.13
2019-04-05T19:06:58.164Z,16.90
2019-04-05T19:09:30.583Z,17.10
2019-04-05T19:12:02.844Z,17.73
2019-04-05T19:14:35.082Z,17.83
2019-04-05T19:17:07.265Z,18.37
2019-04-05T19:19:39.204Z,18.23
2019-04-05T19:22:11.174Z,16.73
2019-04-05T19:24:43.245Z,17.23
2019-04-05T19:27:15.297Z,21.73
2019-04-05T19:29:47.612Z,16.33
2019-04-05T19:50:27.634Z,17.60
2019-04-05T19:52:59.705Z,17.47
2019-04-05T19:55:31.878Z,20.77
2019-04-05T19:58:03.962Z,22.77
2019-04-05T20:00:35.894Z,21.67
2019-04-05T20:03:07.794Z,19.27
2019-04-05T20:05:39.699Z,19.53
2019-04-05T20:08:12.734Z,20.17
2019-04-05T20:10:44.884Z,18.07
2019-04-05T20:13:22.064Z,18.03
2019-04-05T20:15:54.224Z,16.07
2019-04-05T20:18:26.114Z,17.43
2019-04-05T20:20:58.152Z,15.60
2019-04-05T20:23:30.035Z,14.90
2019-04-05T20:26:02.184Z,14.70
2019-04-05T20:28:34.136Z,16.37
2019-04-05T20:31:06.024Z,16.70
2019-04-05T20:33:39.102Z,15.93
2019-04-05T20:36:11.054Z,16.03
2019-04-05T20:38:43.024Z,15.17
2019-04-05T20:41:20.844Z,15.90
2019-04-05T20:43:53.225Z,17.13
2019-04-05T20:46:25.074Z,15.27
2019-04-05T20:48:56.823Z,14.47
2019-04-05T20:51:28.644Z,13.43
2019-04-05T20:54:00.402Z,13.93
2019-04-05T20:56:32.264Z,12.73
2019-04-05T20:59:04.032Z,12.70
2019-04-05T21:01:35.903Z,13.47
2019-04-05T21:04:07.673Z,14.57
2019-04-05T21:06:39.782Z,12.80
2019-04-05T21:09:12.653Z,12.53
2019-04-05T21:11:44.804Z,12.67
2019-04-05T21:14:17.064Z,12.50
2019-04-05T21:16:49.093Z,12.40
2019-04-05T21:19:21.054Z,12.27
2019-04-05T21:21:52.952Z,11.97
2019-04-05T21:24:35.524Z,12.03
2019-04-05T21:26:58.900Z,12.83
2019-04-05T21:29:30.945Z,13.03
2019-04-05T21:32:03.104Z,12.17
2019-04-05T21:34:35.163Z,11.53
2019-04-05T21:37:07.398Z,11.90
2019-04-05T21:39:39.298Z,11.53
2019-04-05T21:42:15.617Z,11.40
2019-04-05T21:44:48.293Z,11.43
2019-04-05T21:47:20.334Z,11.43
2019-04-05T21:49:52.304Z,12.33
2019-04-05T21:52:24.474Z,11.10
2019-04-05T21:54:56.335Z,11.20
2019-04-05T21:57:28.411Z,11.67
2019-04-05T22:00:00.326Z,11.17
2019-04-05T22:02:32.212Z,11.07
2019-04-05T22:05:05.904Z,10.77
2019-04-05T22:07:37.995Z,10.83
2019-04-05T22:10:09.951Z,11.17
2019-04-05T22:12:42.128Z,11.83
2019-04-05T22:15:14.812Z,11.00
2019-04-05T22:17:46.897Z,10.63
2019-04-05T22:20:18.714Z,11.07
2019-04-05T22:22:50.664Z,10.20
2019-04-05T22:25:22.753Z,10.47
2019-04-05T22:27:54.717Z,10.30
2019-04-05T22:30:26.564Z,10.53
2019-04-05T22:32:58.491Z,10.63
2019-04-05T22:35:30.224Z,10.37
2019-04-05T22:38:02.266Z,10.97
2019-04-05T22:40:40.266Z,12.60
2019-04-05T22:43:13.544Z,10.37
2019-04-05T22:45:45.904Z,10.50
2019-04-05T22:48:18.104Z,10.50
2019-04-05T22:50:51.086Z,11.60
2019-04-05T22:53:23.045Z,11.07
2019-04-05T22:55:55.011Z,10.47
2019-04-05T22:58:27.304Z,10.83
2019-04-05T23:00:59.261Z,10.80
2019-04-05T23:03:31.514Z,11.47
2019-04-05T23:06:03.476Z,11.30
2019-04-05T23:08:35.942Z,11.00
2019-04-05T23:11:08.004Z,11.07
2019-04-05T23:13:40.174Z,10.50
2019-04-05T23:16:12.312Z,11.50
2019-04-05T23:18:44.202Z,10.73
2019-04-05T23:21:16.064Z,11.20
2019-04-05T23:23:48.039Z,13.80
2019-04-05T23:26:19.983Z,11.17
2019-04-05T23:28:51.915Z,10.27
2019-04-05T23:31:23.730Z,10.23
2019-04-05T23:33:56.076Z,11.07
2019-04-05T23:36:27.945Z,10.40
2019-04-05T23:39:00.474Z,10.83
2019-04-05T23:41:32.374Z,10.20
2019-04-05T23:44:05.579Z,11.40
2019-04-05T23:46:38.345Z,11.37
2019-04-05T23:49:10.414Z,10.40
2019-04-05T23:51:42.487Z,10.67
2019-04-05T23:54:14.554Z,11.30
2019-04-05T23:56:46.433Z,12.23
2019-04-05T23:59:18.373Z,12.50
